<?xml version="1.0" encoding="UTF-8" standalone="no" ?>
<gpx xmlns="http://www.topografix.com/GPX/1/1" xmlns:xsi="http://www.w3.org/2001/XMLSchema-instance" xsi:schemaLocation="http://www.topografix.com/GPX/1/1 http://www.topografix.com/GPX/1/1/gpx.xsd" version="1.1" creator="VisuGPX - https://www.visugpx.com">
  <metadata>
    <name>Le long du canal et de l'Yonne à partir de Joigny</name>
    <desc><![CDATA[séjour 2021]]></desc>
  </metadata>
  <wpt lat="47.98409" lon="3.39435">
    <ele>96</ele>
    <name><![CDATA[Parking]]></name>
  </wpt>
  <wpt lat="47.98317" lon="3.38757">
    <ele>82</ele>
    <name><![CDATA[Quai d'Épizy]]></name>
  </wpt>
  <wpt lat="47.98232" lon="3.37593">
    <ele>76</ele>
    <name><![CDATA[Pont de pierre sur le canal]]></name>
  </wpt>
  <wpt lat="47.9821" lon="3.37549">
    <ele>76</ele>
    <name><![CDATA[Pont de pierre sur le canal]]></name>
  </wpt>
  <wpt lat="47.99742" lon="3.34567">
    <ele>74</ele>
    <name><![CDATA[Écluse de Saint-Aubin]]></name>
  </wpt>
  <wpt lat="47.99312" lon="3.34289">
    <ele>75</ele>
    <name><![CDATA[Vue sur le Pont]]></name>
  </wpt>
  <wpt lat="47.98996" lon="3.34239">
    <ele>76</ele>
    <name><![CDATA[Chemin qui contourne le Gravier]]></name>
  </wpt>
  <wpt lat="47.9893" lon="3.3499">
    <ele>73</ele>
    <name><![CDATA[Berge rive gauche]]></name>
  </wpt>
  <wpt lat="47.98923" lon="3.35007">
    <ele>73</ele>
    <name><![CDATA[Bord de l'Yonne]]></name>
  </wpt>
  <wpt lat="47.97846" lon="3.35975">
    <ele>73</ele>
    <name><![CDATA[Pont sur l'Yonne]]></name>
  </wpt>
  <wpt lat="47.97819" lon="3.35989">
    <ele>73</ele>
    <name><![CDATA[Pont]]></name>
  </wpt>
  <wpt lat="47.97835" lon="3.36397">
    <ele>75</ele>
    <name><![CDATA[Intersection]]></name>
  </wpt>
  <wpt lat="47.98227" lon="3.37858">
    <ele>79</ele>
    <name><![CDATA[photos de la ville de Joigny Lyon]]></name>
  </wpt>
  <wpt lat="47.98308" lon="3.38709">
    <ele>81</ele>
    <name><![CDATA[Croisement et rue vers le Faubourg Saint-Jacques]]></name>
  </wpt>
  <wpt lat="47.98311" lon="3.38745">
    <ele>81</ele>
    <name><![CDATA[Croisement et rue vers le Faubourg Saint-Jacques]]></name>
  </wpt>
  <wpt lat="47.9834" lon="3.39388">
    <ele>91</ele>
    <name><![CDATA[Caisse d'Épargne]]></name>
  </wpt>
  <wpt lat="47.9841" lon="3.39431">
    <ele>96</ele>
    <name><![CDATA[Parking]]></name>
  </wpt>
  <trk>
    <name><![CDATA[Le long du canal et de l'Yonne à partir de Joigny]]></name>
    <trkseg>
      <trkpt lat="47.98409" lon="3.39435">
        <ele>96</ele>
        <time>2018-02-21T09:42:06+01:00</time>
      </trkpt>
      <trkpt lat="47.98343" lon="3.39434">
        <ele>92</ele>
        <time>2018-02-21T09:42:10+01:00</time>
      </trkpt>
      <trkpt lat="47.98339" lon="3.39404">
        <ele>91</ele>
        <time>2018-02-21T09:42:25+01:00</time>
      </trkpt>
      <trkpt lat="47.98339" lon="3.39385">
        <ele>90</ele>
        <time>2018-02-21T09:42:49+01:00</time>
      </trkpt>
      <trkpt lat="47.983" lon="3.39385">
        <ele>88</ele>
        <time>2018-02-21T09:43:05+01:00</time>
      </trkpt>
      <trkpt lat="47.98296" lon="3.39327">
        <ele>86</ele>
        <time>2018-02-21T09:43:25+01:00</time>
      </trkpt>
      <trkpt lat="47.98295" lon="3.39296">
        <ele>86</ele>
        <time>2018-02-21T09:43:46+01:00</time>
      </trkpt>
      <trkpt lat="47.98297" lon="3.39271">
        <ele>86</ele>
        <time>2018-02-21T09:44:02+01:00</time>
      </trkpt>
      <trkpt lat="47.98299" lon="3.39239">
        <ele>85</ele>
        <time>2021-06-17T08:23:07+02:00</time>
      </trkpt>
      <trkpt lat="47.98302" lon="3.39216">
        <ele>85</ele>
        <time>2018-02-21T09:44:18+01:00</time>
      </trkpt>
      <trkpt lat="47.98303" lon="3.39194">
        <ele>84</ele>
        <time>2021-06-17T08:23:17+02:00</time>
      </trkpt>
      <trkpt lat="47.98292" lon="3.39188">
        <ele>84</ele>
        <time>2018-02-21T09:44:46+01:00</time>
      </trkpt>
      <trkpt lat="47.98278" lon="3.39184">
        <ele>83</ele>
        <time>2018-02-21T09:45:04+01:00</time>
      </trkpt>
      <trkpt lat="47.98265" lon="3.3918">
        <ele>82</ele>
        <time>2018-02-21T09:45:19+01:00</time>
      </trkpt>
      <trkpt lat="47.98254" lon="3.39174">
        <ele>80</ele>
        <time>2021-06-17T08:23:37+02:00</time>
      </trkpt>
      <trkpt lat="47.98246" lon="3.39171">
        <ele>80</ele>
        <time>2018-02-21T09:45:31+01:00</time>
      </trkpt>
      <trkpt lat="47.98254" lon="3.39123">
        <ele>78</ele>
        <time>2018-02-21T09:45:45+01:00</time>
      </trkpt>
      <trkpt lat="47.9826" lon="3.39089">
        <ele>77</ele>
        <time>2018-02-21T09:45:58+01:00</time>
      </trkpt>
      <trkpt lat="47.98267" lon="3.39058">
        <ele>78</ele>
        <time>2018-02-21T09:46:12+01:00</time>
      </trkpt>
      <trkpt lat="47.98273" lon="3.39026">
        <ele>79</ele>
        <time>2018-02-21T09:46:25+01:00</time>
      </trkpt>
      <trkpt lat="47.9828" lon="3.38989">
        <ele>81</ele>
        <time>2018-02-21T09:46:39+01:00</time>
      </trkpt>
      <trkpt lat="47.98286" lon="3.38958">
        <ele>82</ele>
        <time>2018-02-21T09:46:52+01:00</time>
      </trkpt>
      <trkpt lat="47.98292" lon="3.38925">
        <ele>82</ele>
        <time>2018-02-21T09:47:05+01:00</time>
      </trkpt>
      <trkpt lat="47.98297" lon="3.38893">
        <ele>83</ele>
        <time>2018-02-21T09:47:23+01:00</time>
      </trkpt>
      <trkpt lat="47.98302" lon="3.3886">
        <ele>84</ele>
        <time>2018-02-21T09:47:41+01:00</time>
      </trkpt>
      <trkpt lat="47.98306" lon="3.38826">
        <ele>85</ele>
        <time>2018-02-21T09:47:57+01:00</time>
      </trkpt>
      <trkpt lat="47.98312" lon="3.38793">
        <ele>84</ele>
        <time>2018-02-21T09:48:13+01:00</time>
      </trkpt>
      <trkpt lat="47.98317" lon="3.38757">
        <ele>82</ele>
        <time>2018-02-21T09:48:25+01:00</time>
      </trkpt>
      <trkpt lat="47.98308" lon="3.38749">
        <ele>81</ele>
        <time>2018-02-21T09:48:39+01:00</time>
      </trkpt>
      <trkpt lat="47.98307" lon="3.38718">
        <ele>81</ele>
        <time>2018-02-21T09:48:53+01:00</time>
      </trkpt>
      <trkpt lat="47.98308" lon="3.38666">
        <ele>82</ele>
        <time>2018-02-21T09:49:10+01:00</time>
      </trkpt>
      <trkpt lat="47.98306" lon="3.38626">
        <ele>83</ele>
        <time>2018-02-21T09:49:25+01:00</time>
      </trkpt>
      <trkpt lat="47.98306" lon="3.38585">
        <ele>84</ele>
        <time>2018-02-21T09:49:40+01:00</time>
      </trkpt>
      <trkpt lat="47.98307" lon="3.38552">
        <ele>84</ele>
        <time>2018-02-21T09:49:55+01:00</time>
      </trkpt>
      <trkpt lat="47.98306" lon="3.3852">
        <ele>83</ele>
        <time>2018-02-21T09:50:09+01:00</time>
      </trkpt>
      <trkpt lat="47.98304" lon="3.38482">
        <ele>82</ele>
        <time>2018-02-21T09:50:23+01:00</time>
      </trkpt>
      <trkpt lat="47.98303" lon="3.38448">
        <ele>82</ele>
        <time>2018-02-21T09:50:39+01:00</time>
      </trkpt>
      <trkpt lat="47.98301" lon="3.38416">
        <ele>81</ele>
        <time>2018-02-21T09:50:55+01:00</time>
      </trkpt>
      <trkpt lat="47.98298" lon="3.38382">
        <ele>82</ele>
        <time>2018-02-21T09:51:08+01:00</time>
      </trkpt>
      <trkpt lat="47.98293" lon="3.38343">
        <ele>83</ele>
        <time>2018-02-21T09:51:22+01:00</time>
      </trkpt>
      <trkpt lat="47.98288" lon="3.38309">
        <ele>83</ele>
        <time>2018-02-21T09:51:33+01:00</time>
      </trkpt>
      <trkpt lat="47.98287" lon="3.38277">
        <ele>82</ele>
        <time>2018-02-21T09:51:46+01:00</time>
      </trkpt>
      <trkpt lat="47.98284" lon="3.38241">
        <ele>82</ele>
        <time>2018-02-21T09:52:01+01:00</time>
      </trkpt>
      <trkpt lat="47.98283" lon="3.38204">
        <ele>81</ele>
        <time>2018-02-21T09:52:18+01:00</time>
      </trkpt>
      <trkpt lat="47.98282" lon="3.38171">
        <ele>80</ele>
        <time>2018-02-21T09:52:31+01:00</time>
      </trkpt>
      <trkpt lat="47.98279" lon="3.38138">
        <ele>79</ele>
        <time>2018-02-21T09:52:45+01:00</time>
      </trkpt>
      <trkpt lat="47.98276" lon="3.38106">
        <ele>78</ele>
        <time>2018-02-21T09:53:03+01:00</time>
      </trkpt>
      <trkpt lat="47.98273" lon="3.38071">
        <ele>78</ele>
        <time>2018-02-21T09:53:18+01:00</time>
      </trkpt>
      <trkpt lat="47.9827" lon="3.38033">
        <ele>78</ele>
        <time>2018-02-21T09:53:33+01:00</time>
      </trkpt>
      <trkpt lat="47.98264" lon="3.38001">
        <ele>77</ele>
        <time>2018-02-21T09:53:46+01:00</time>
      </trkpt>
      <trkpt lat="47.98257" lon="3.37968">
        <ele>77</ele>
        <time>2018-02-21T09:54:02+01:00</time>
      </trkpt>
      <trkpt lat="47.98247" lon="3.37934">
        <ele>78</ele>
        <time>2018-02-21T09:54:17+01:00</time>
      </trkpt>
      <trkpt lat="47.98237" lon="3.37902">
        <ele>78</ele>
        <time>2018-02-21T09:54:32+01:00</time>
      </trkpt>
      <trkpt lat="47.9823" lon="3.37869">
        <ele>79</ele>
        <time>2018-02-21T09:54:47+01:00</time>
      </trkpt>
      <trkpt lat="47.98223" lon="3.37836">
        <ele>79</ele>
        <time>2018-02-21T09:55:01+01:00</time>
      </trkpt>
      <trkpt lat="47.98219" lon="3.37803">
        <ele>78</ele>
        <time>2018-02-21T09:55:15+01:00</time>
      </trkpt>
      <trkpt lat="47.9822" lon="3.37768">
        <ele>78</ele>
        <time>2018-02-21T09:55:29+01:00</time>
      </trkpt>
      <trkpt lat="47.98218" lon="3.37734">
        <ele>77</ele>
        <time>2018-02-21T09:55:45+01:00</time>
      </trkpt>
      <trkpt lat="47.9822" lon="3.37697">
        <ele>78</ele>
        <time>2018-02-21T09:55:59+01:00</time>
      </trkpt>
      <trkpt lat="47.98222" lon="3.37662">
        <ele>78</ele>
        <time>2018-02-21T09:56:20+01:00</time>
      </trkpt>
      <trkpt lat="47.98225" lon="3.3763">
        <ele>77</ele>
        <time>2018-02-21T09:56:37+01:00</time>
      </trkpt>
      <trkpt lat="47.98232" lon="3.37593">
        <ele>76</ele>
        <time>2018-02-21T09:56:51+01:00</time>
      </trkpt>
      <trkpt lat="47.98232" lon="3.37561">
        <ele>76</ele>
        <time>2018-02-21T09:57:06+01:00</time>
      </trkpt>
      <trkpt lat="47.9821" lon="3.37549">
        <ele>76</ele>
        <time>2021-06-17T08:27:42+02:00</time>
      </trkpt>
      <trkpt lat="47.98211" lon="3.37539">
        <ele>76</ele>
        <time>2018-02-21T09:57:25+01:00</time>
      </trkpt>
      <trkpt lat="47.98219" lon="3.37506">
        <ele>76</ele>
        <time>2018-02-21T09:57:45+01:00</time>
      </trkpt>
      <trkpt lat="47.98223" lon="3.37473">
        <ele>76</ele>
        <time>2018-02-21T09:58:01+01:00</time>
      </trkpt>
      <trkpt lat="47.98233" lon="3.37435">
        <ele>76</ele>
        <time>2018-02-21T09:58:14+01:00</time>
      </trkpt>
      <trkpt lat="47.98245" lon="3.37406">
        <ele>76</ele>
        <time>2018-02-21T09:58:29+01:00</time>
      </trkpt>
      <trkpt lat="47.9826" lon="3.37383">
        <ele>76</ele>
        <time>2018-02-21T09:58:40+01:00</time>
      </trkpt>
      <trkpt lat="47.98273" lon="3.37355">
        <ele>76</ele>
        <time>2018-02-21T09:58:56+01:00</time>
      </trkpt>
      <trkpt lat="47.98287" lon="3.37327">
        <ele>76</ele>
        <time>2018-02-21T09:59:10+01:00</time>
      </trkpt>
      <trkpt lat="47.98302" lon="3.37302">
        <ele>76</ele>
        <time>2018-02-21T09:59:26+01:00</time>
      </trkpt>
      <trkpt lat="47.98319" lon="3.37278">
        <ele>77</ele>
        <time>2018-02-21T09:59:41+01:00</time>
      </trkpt>
      <trkpt lat="47.98335" lon="3.37254">
        <ele>77</ele>
        <time>2018-02-21T10:00:03+01:00</time>
      </trkpt>
      <trkpt lat="47.98355" lon="3.37236">
        <ele>77</ele>
        <time>2018-02-21T10:00:17+01:00</time>
      </trkpt>
      <trkpt lat="47.98375" lon="3.37218">
        <ele>76</ele>
        <time>2018-02-21T10:00:34+01:00</time>
      </trkpt>
      <trkpt lat="47.98396" lon="3.37202">
        <ele>76</ele>
        <time>2018-02-21T10:00:48+01:00</time>
      </trkpt>
      <trkpt lat="47.98417" lon="3.37186">
        <ele>75</ele>
        <time>2018-02-21T10:01:04+01:00</time>
      </trkpt>
      <trkpt lat="47.98438" lon="3.37169">
        <ele>75</ele>
        <time>2018-02-21T10:01:20+01:00</time>
      </trkpt>
      <trkpt lat="47.9846" lon="3.3716">
        <ele>74</ele>
        <time>2018-02-21T10:01:33+01:00</time>
      </trkpt>
      <trkpt lat="47.98482" lon="3.37147">
        <ele>74</ele>
        <time>2018-02-21T10:01:48+01:00</time>
      </trkpt>
      <trkpt lat="47.98504" lon="3.37136">
        <ele>74</ele>
        <time>2018-02-21T10:02:02+01:00</time>
      </trkpt>
      <trkpt lat="47.98524" lon="3.37119">
        <ele>75</ele>
        <time>2018-02-21T10:02:22+01:00</time>
      </trkpt>
      <trkpt lat="47.98546" lon="3.37109">
        <ele>76</ele>
        <time>2018-02-21T10:02:38+01:00</time>
      </trkpt>
      <trkpt lat="47.98568" lon="3.37094">
        <ele>77</ele>
        <time>2018-02-21T10:02:57+01:00</time>
      </trkpt>
      <trkpt lat="47.98589" lon="3.37081">
        <ele>78</ele>
        <time>2018-02-21T10:03:17+01:00</time>
      </trkpt>
      <trkpt lat="47.98611" lon="3.37068">
        <ele>78</ele>
        <time>2018-02-21T10:03:33+01:00</time>
      </trkpt>
      <trkpt lat="47.98632" lon="3.37054">
        <ele>79</ele>
        <time>2018-02-21T10:03:47+01:00</time>
      </trkpt>
      <trkpt lat="47.98654" lon="3.37043">
        <ele>79</ele>
        <time>2018-02-21T10:04:00+01:00</time>
      </trkpt>
      <trkpt lat="47.98678" lon="3.37032">
        <ele>79</ele>
        <time>2018-02-21T10:04:15+01:00</time>
      </trkpt>
      <trkpt lat="47.98698" lon="3.37014">
        <ele>79</ele>
        <time>2018-02-21T10:04:32+01:00</time>
      </trkpt>
      <trkpt lat="47.98719" lon="3.37001">
        <ele>78</ele>
        <time>2018-02-21T10:04:45+01:00</time>
      </trkpt>
      <trkpt lat="47.9874" lon="3.36984">
        <ele>78</ele>
        <time>2018-02-21T10:04:59+01:00</time>
      </trkpt>
      <trkpt lat="47.9876" lon="3.36968">
        <ele>78</ele>
        <time>2018-02-21T10:05:14+01:00</time>
      </trkpt>
      <trkpt lat="47.98779" lon="3.36945">
        <ele>78</ele>
        <time>2018-02-21T10:05:32+01:00</time>
      </trkpt>
      <trkpt lat="47.98799" lon="3.36929">
        <ele>78</ele>
        <time>2018-02-21T10:05:47+01:00</time>
      </trkpt>
      <trkpt lat="47.98818" lon="3.3691">
        <ele>78</ele>
        <time>2018-02-21T10:06:01+01:00</time>
      </trkpt>
      <trkpt lat="47.98837" lon="3.36888">
        <ele>78</ele>
        <time>2018-02-21T10:06:15+01:00</time>
      </trkpt>
      <trkpt lat="47.98854" lon="3.36866">
        <ele>80</ele>
        <time>2018-02-21T10:06:30+01:00</time>
      </trkpt>
      <trkpt lat="47.9887" lon="3.36843">
        <ele>82</ele>
        <time>2018-02-21T10:06:45+01:00</time>
      </trkpt>
      <trkpt lat="47.98883" lon="3.36814">
        <ele>83</ele>
        <time>2018-02-21T10:06:59+01:00</time>
      </trkpt>
      <trkpt lat="47.98897" lon="3.36785">
        <ele>83</ele>
        <time>2018-02-21T10:07:14+01:00</time>
      </trkpt>
      <trkpt lat="47.98909" lon="3.36757">
        <ele>83</ele>
        <time>2018-02-21T10:07:28+01:00</time>
      </trkpt>
      <trkpt lat="47.9892" lon="3.36728">
        <ele>82</ele>
        <time>2018-02-21T10:07:45+01:00</time>
      </trkpt>
      <trkpt lat="47.9893" lon="3.36697">
        <ele>81</ele>
        <time>2018-02-21T10:08:02+01:00</time>
      </trkpt>
      <trkpt lat="47.9894" lon="3.36668">
        <ele>81</ele>
        <time>2018-02-21T10:08:16+01:00</time>
      </trkpt>
      <trkpt lat="47.98955" lon="3.36639">
        <ele>83</ele>
        <time>2018-02-21T10:08:32+01:00</time>
      </trkpt>
      <trkpt lat="47.98967" lon="3.36608">
        <ele>84</ele>
        <time>2018-02-21T10:08:46+01:00</time>
      </trkpt>
      <trkpt lat="47.98984" lon="3.36582">
        <ele>86</ele>
        <time>2018-02-21T10:08:59+01:00</time>
      </trkpt>
      <trkpt lat="47.98995" lon="3.36551">
        <ele>84</ele>
        <time>2018-02-21T10:09:16+01:00</time>
      </trkpt>
      <trkpt lat="47.99005" lon="3.36518">
        <ele>81</ele>
        <time>2018-02-21T10:09:31+01:00</time>
      </trkpt>
      <trkpt lat="47.9902" lon="3.36487">
        <ele>81</ele>
        <time>2018-02-21T10:09:47+01:00</time>
      </trkpt>
      <trkpt lat="47.99033" lon="3.36459">
        <ele>82</ele>
        <time>2018-02-21T10:10:03+01:00</time>
      </trkpt>
      <trkpt lat="47.99048" lon="3.36436">
        <ele>82</ele>
        <time>2018-02-21T10:10:18+01:00</time>
      </trkpt>
      <trkpt lat="47.9906" lon="3.36407">
        <ele>82</ele>
        <time>2018-02-21T10:10:32+01:00</time>
      </trkpt>
      <trkpt lat="47.9907" lon="3.36375">
        <ele>82</ele>
        <time>2018-02-21T10:10:45+01:00</time>
      </trkpt>
      <trkpt lat="47.99082" lon="3.36348">
        <ele>82</ele>
        <time>2018-02-21T10:11:01+01:00</time>
      </trkpt>
      <trkpt lat="47.99094" lon="3.36315">
        <ele>82</ele>
        <time>2018-02-21T10:11:16+01:00</time>
      </trkpt>
      <trkpt lat="47.99104" lon="3.36284">
        <ele>81</ele>
        <time>2018-02-21T10:11:30+01:00</time>
      </trkpt>
      <trkpt lat="47.99115" lon="3.36253">
        <ele>80</ele>
        <time>2018-02-21T10:11:46+01:00</time>
      </trkpt>
      <trkpt lat="47.99123" lon="3.36219">
        <ele>79</ele>
        <time>2018-02-21T10:12:03+01:00</time>
      </trkpt>
      <trkpt lat="47.9913" lon="3.36185">
        <ele>79</ele>
        <time>2018-02-21T10:12:18+01:00</time>
      </trkpt>
      <trkpt lat="47.99142" lon="3.36158">
        <ele>79</ele>
        <time>2018-02-21T10:12:33+01:00</time>
      </trkpt>
      <trkpt lat="47.99149" lon="3.36125">
        <ele>79</ele>
        <time>2018-02-21T10:12:47+01:00</time>
      </trkpt>
      <trkpt lat="47.99155" lon="3.36093">
        <ele>79</ele>
        <time>2018-02-21T10:13:00+01:00</time>
      </trkpt>
      <trkpt lat="47.99164" lon="3.36061">
        <ele>79</ele>
        <time>2018-02-21T10:13:15+01:00</time>
      </trkpt>
      <trkpt lat="47.99174" lon="3.36029">
        <ele>79</ele>
        <time>2018-02-21T10:13:32+01:00</time>
      </trkpt>
      <trkpt lat="47.99178" lon="3.35995">
        <ele>78</ele>
        <time>2018-02-21T10:13:47+01:00</time>
      </trkpt>
      <trkpt lat="47.99193" lon="3.35967">
        <ele>78</ele>
        <time>2018-02-21T10:14:05+01:00</time>
      </trkpt>
      <trkpt lat="47.99202" lon="3.35935">
        <ele>78</ele>
        <time>2018-02-21T10:14:20+01:00</time>
      </trkpt>
      <trkpt lat="47.99214" lon="3.35907">
        <ele>78</ele>
        <time>2018-02-21T10:14:33+01:00</time>
      </trkpt>
      <trkpt lat="47.99226" lon="3.35875">
        <ele>78</ele>
        <time>2018-02-21T10:14:47+01:00</time>
      </trkpt>
      <trkpt lat="47.99237" lon="3.35844">
        <ele>77</ele>
        <time>2018-02-21T10:15:01+01:00</time>
      </trkpt>
      <trkpt lat="47.9925" lon="3.35814">
        <ele>77</ele>
        <time>2018-02-21T10:15:15+01:00</time>
      </trkpt>
      <trkpt lat="47.99261" lon="3.35784">
        <ele>76</ele>
        <time>2018-02-21T10:15:30+01:00</time>
      </trkpt>
      <trkpt lat="47.99273" lon="3.35755">
        <ele>75</ele>
        <time>2018-02-21T10:15:48+01:00</time>
      </trkpt>
      <trkpt lat="47.99286" lon="3.35726">
        <ele>75</ele>
        <time>2018-02-21T10:16:04+01:00</time>
      </trkpt>
      <trkpt lat="47.99298" lon="3.35696">
        <ele>74</ele>
        <time>2018-02-21T10:16:18+01:00</time>
      </trkpt>
      <trkpt lat="47.9931" lon="3.35665">
        <ele>74</ele>
        <time>2018-02-21T10:16:33+01:00</time>
      </trkpt>
      <trkpt lat="47.99323" lon="3.35637">
        <ele>74</ele>
        <time>2018-02-21T10:16:48+01:00</time>
      </trkpt>
      <trkpt lat="47.99334" lon="3.35605">
        <ele>74</ele>
        <time>2018-02-21T10:17:03+01:00</time>
      </trkpt>
      <trkpt lat="47.99348" lon="3.35574">
        <ele>75</ele>
        <time>2018-02-21T10:17:17+01:00</time>
      </trkpt>
      <trkpt lat="47.99358" lon="3.35546">
        <ele>76</ele>
        <time>2018-02-21T10:17:31+01:00</time>
      </trkpt>
      <trkpt lat="47.99368" lon="3.35514">
        <ele>77</ele>
        <time>2018-02-21T10:17:47+01:00</time>
      </trkpt>
      <trkpt lat="47.99379" lon="3.35485">
        <ele>77</ele>
        <time>2018-02-21T10:18:04+01:00</time>
      </trkpt>
      <trkpt lat="47.99394" lon="3.35458">
        <ele>77</ele>
        <time>2018-02-21T10:18:19+01:00</time>
      </trkpt>
      <trkpt lat="47.99404" lon="3.35427">
        <ele>77</ele>
        <time>2018-02-21T10:18:34+01:00</time>
      </trkpt>
      <trkpt lat="47.99414" lon="3.35395">
        <ele>77</ele>
        <time>2018-02-21T10:18:48+01:00</time>
      </trkpt>
      <trkpt lat="47.99428" lon="3.35364">
        <ele>76</ele>
        <time>2018-02-21T10:19:02+01:00</time>
      </trkpt>
      <trkpt lat="47.99439" lon="3.35337">
        <ele>75</ele>
        <time>2018-02-21T10:19:15+01:00</time>
      </trkpt>
      <trkpt lat="47.9945" lon="3.35308">
        <ele>75</ele>
        <time>2018-02-21T10:19:30+01:00</time>
      </trkpt>
      <trkpt lat="47.99461" lon="3.35279">
        <ele>74</ele>
        <time>2018-02-21T10:19:46+01:00</time>
      </trkpt>
      <trkpt lat="47.99474" lon="3.35249">
        <ele>73</ele>
        <time>2018-02-21T10:20:02+01:00</time>
      </trkpt>
      <trkpt lat="47.99489" lon="3.35223">
        <ele>73</ele>
        <time>2018-02-21T10:20:17+01:00</time>
      </trkpt>
      <trkpt lat="47.99498" lon="3.3519">
        <ele>73</ele>
        <time>2018-02-21T10:20:31+01:00</time>
      </trkpt>
      <trkpt lat="47.99511" lon="3.35157">
        <ele>73</ele>
        <time>2018-02-21T10:20:45+01:00</time>
      </trkpt>
      <trkpt lat="47.99521" lon="3.35129">
        <ele>73</ele>
        <time>2018-02-21T10:20:59+01:00</time>
      </trkpt>
      <trkpt lat="47.99534" lon="3.35102">
        <ele>73</ele>
        <time>2018-02-21T10:21:16+01:00</time>
      </trkpt>
      <trkpt lat="47.99545" lon="3.35071">
        <ele>74</ele>
        <time>2018-02-21T10:21:31+01:00</time>
      </trkpt>
      <trkpt lat="47.99558" lon="3.35042">
        <ele>75</ele>
        <time>2018-02-21T10:21:46+01:00</time>
      </trkpt>
      <trkpt lat="47.9957" lon="3.3501">
        <ele>76</ele>
        <time>2018-02-21T10:22:05+01:00</time>
      </trkpt>
      <trkpt lat="47.99583" lon="3.3498">
        <ele>77</ele>
        <time>2018-02-21T10:22:20+01:00</time>
      </trkpt>
      <trkpt lat="47.99594" lon="3.34959">
        <ele>77</ele>
        <time>2018-02-21T10:22:34+01:00</time>
      </trkpt>
      <trkpt lat="47.99605" lon="3.34925">
        <ele>76</ele>
        <time>2018-02-21T10:22:52+01:00</time>
      </trkpt>
      <trkpt lat="47.99616" lon="3.34889">
        <ele>76</ele>
        <time>2018-02-21T10:23:09+01:00</time>
      </trkpt>
      <trkpt lat="47.99628" lon="3.3486">
        <ele>75</ele>
        <time>2018-02-21T10:23:25+01:00</time>
      </trkpt>
      <trkpt lat="47.9964" lon="3.34832">
        <ele>75</ele>
        <time>2018-02-21T10:23:40+01:00</time>
      </trkpt>
      <trkpt lat="47.99657" lon="3.34801">
        <ele>76</ele>
        <time>2018-02-21T10:23:57+01:00</time>
      </trkpt>
      <trkpt lat="47.99667" lon="3.34774">
        <ele>76</ele>
        <time>2018-02-21T10:24:12+01:00</time>
      </trkpt>
      <trkpt lat="47.99678" lon="3.34745">
        <ele>76</ele>
        <time>2018-02-21T10:24:28+01:00</time>
      </trkpt>
      <trkpt lat="47.99688" lon="3.34719">
        <ele>76</ele>
        <time>2018-02-21T10:24:44+01:00</time>
      </trkpt>
      <trkpt lat="47.99699" lon="3.34688">
        <ele>76</ele>
        <time>2018-02-21T10:25:02+01:00</time>
      </trkpt>
      <trkpt lat="47.99712" lon="3.3466">
        <ele>75</ele>
        <time>2018-02-21T10:25:15+01:00</time>
      </trkpt>
      <trkpt lat="47.99722" lon="3.3463">
        <ele>75</ele>
        <time>2018-02-21T10:25:30+01:00</time>
      </trkpt>
      <trkpt lat="47.99735" lon="3.34596">
        <ele>74</ele>
        <time>2018-02-21T10:25:47+01:00</time>
      </trkpt>
      <trkpt lat="47.99742" lon="3.34567">
        <ele>74</ele>
        <time>2018-02-21T10:26:06+01:00</time>
      </trkpt>
      <trkpt lat="47.99718" lon="3.34542">
        <ele>74</ele>
        <time>2018-02-21T10:26:23+01:00</time>
      </trkpt>
      <trkpt lat="47.99698" lon="3.34522">
        <ele>74</ele>
        <time>2018-02-21T10:26:39+01:00</time>
      </trkpt>
      <trkpt lat="47.99677" lon="3.34505">
        <ele>73</ele>
        <time>2018-02-21T10:26:55+01:00</time>
      </trkpt>
      <trkpt lat="47.99658" lon="3.34488">
        <ele>73</ele>
        <time>2018-02-21T10:27:09+01:00</time>
      </trkpt>
      <trkpt lat="47.99638" lon="3.34474">
        <ele>73</ele>
        <time>2018-02-21T10:27:24+01:00</time>
      </trkpt>
      <trkpt lat="47.99616" lon="3.34464">
        <ele>73</ele>
        <time>2018-02-21T10:27:36+01:00</time>
      </trkpt>
      <trkpt lat="47.99593" lon="3.34461">
        <ele>73</ele>
        <time>2018-02-21T10:27:51+01:00</time>
      </trkpt>
      <trkpt lat="47.9957" lon="3.3446">
        <ele>73</ele>
        <time>2018-02-21T10:28:05+01:00</time>
      </trkpt>
      <trkpt lat="47.99547" lon="3.34463">
        <ele>73</ele>
        <time>2018-02-21T10:28:17+01:00</time>
      </trkpt>
      <trkpt lat="47.99523" lon="3.3446">
        <ele>73</ele>
        <time>2018-02-21T10:28:34+01:00</time>
      </trkpt>
      <trkpt lat="47.99499" lon="3.34459">
        <ele>72</ele>
        <time>2018-02-21T10:28:49+01:00</time>
      </trkpt>
      <trkpt lat="47.99476" lon="3.34456">
        <ele>73</ele>
        <time>2018-02-21T10:29:04+01:00</time>
      </trkpt>
      <trkpt lat="47.99454" lon="3.34448">
        <ele>72</ele>
        <time>2018-02-21T10:29:19+01:00</time>
      </trkpt>
      <trkpt lat="47.99432" lon="3.34446">
        <ele>72</ele>
        <time>2018-02-21T10:29:38+01:00</time>
      </trkpt>
      <trkpt lat="47.99414" lon="3.34413">
        <ele>72</ele>
        <time>2018-02-21T10:29:55+01:00</time>
      </trkpt>
      <trkpt lat="47.99399" lon="3.34387">
        <ele>72</ele>
        <time>2018-02-21T10:30:11+01:00</time>
      </trkpt>
      <trkpt lat="47.99384" lon="3.34357">
        <ele>73</ele>
        <time>2018-02-21T10:30:28+01:00</time>
      </trkpt>
      <trkpt lat="47.99371" lon="3.34331">
        <ele>73</ele>
        <time>2018-02-21T10:30:44+01:00</time>
      </trkpt>
      <trkpt lat="47.99355" lon="3.34304">
        <ele>74</ele>
        <time>2018-02-21T10:30:57+01:00</time>
      </trkpt>
      <trkpt lat="47.99345" lon="3.34291">
        <ele>75</ele>
        <time>2021-06-17T08:38:47+02:00</time>
      </trkpt>
      <trkpt lat="47.99332" lon="3.34291">
        <ele>75</ele>
        <time>2018-02-21T10:31:09+01:00</time>
      </trkpt>
      <trkpt lat="47.99312" lon="3.34289">
        <ele>75</ele>
        <time>2018-02-21T10:31:22+01:00</time>
      </trkpt>
      <trkpt lat="47.99287" lon="3.3429">
        <ele>76</ele>
        <time>2018-02-21T10:33:08+01:00</time>
      </trkpt>
      <trkpt lat="47.99264" lon="3.34283">
        <ele>76</ele>
        <time>2018-02-21T10:33:26+01:00</time>
      </trkpt>
      <trkpt lat="47.99242" lon="3.34275">
        <ele>77</ele>
        <time>2018-02-21T10:33:44+01:00</time>
      </trkpt>
      <trkpt lat="47.9922" lon="3.34268">
        <ele>77</ele>
        <time>2018-02-21T10:33:59+01:00</time>
      </trkpt>
      <trkpt lat="47.99197" lon="3.34266">
        <ele>76</ele>
        <time>2018-02-21T10:34:14+01:00</time>
      </trkpt>
      <trkpt lat="47.99175" lon="3.34259">
        <ele>76</ele>
        <time>2018-02-21T10:34:30+01:00</time>
      </trkpt>
      <trkpt lat="47.99168" lon="3.34239">
        <ele>76</ele>
        <time>2021-06-17T08:39:32+02:00</time>
      </trkpt>
      <trkpt lat="47.99154" lon="3.34242">
        <ele>76</ele>
        <time>2018-02-21T10:36:08+01:00</time>
      </trkpt>
      <trkpt lat="47.99131" lon="3.34247">
        <ele>76</ele>
        <time>2018-02-21T10:36:25+01:00</time>
      </trkpt>
      <trkpt lat="47.99108" lon="3.34255">
        <ele>75</ele>
        <time>2018-02-21T10:36:45+01:00</time>
      </trkpt>
      <trkpt lat="47.99085" lon="3.34261">
        <ele>75</ele>
        <time>2018-02-21T10:37:03+01:00</time>
      </trkpt>
      <trkpt lat="47.99062" lon="3.34267">
        <ele>75</ele>
        <time>2018-02-21T10:37:15+01:00</time>
      </trkpt>
      <trkpt lat="47.99038" lon="3.34257">
        <ele>76</ele>
        <time>2018-02-21T10:37:27+01:00</time>
      </trkpt>
      <trkpt lat="47.99015" lon="3.34247">
        <ele>76</ele>
        <time>2018-02-21T10:37:40+01:00</time>
      </trkpt>
      <trkpt lat="47.98996" lon="3.34239">
        <ele>76</ele>
        <time>2018-02-21T10:37:54+01:00</time>
      </trkpt>
      <trkpt lat="47.98972" lon="3.34242">
        <ele>76</ele>
        <time>2018-02-21T10:38:10+01:00</time>
      </trkpt>
      <trkpt lat="47.98949" lon="3.34247">
        <ele>76</ele>
        <time>2018-02-21T10:38:21+01:00</time>
      </trkpt>
      <trkpt lat="47.98926" lon="3.34251">
        <ele>76</ele>
        <time>2018-02-21T10:38:38+01:00</time>
      </trkpt>
      <trkpt lat="47.98903" lon="3.3426">
        <ele>76</ele>
        <time>2018-02-21T10:38:52+01:00</time>
      </trkpt>
      <trkpt lat="47.98878" lon="3.3427">
        <ele>76</ele>
        <time>2018-02-21T10:39:12+01:00</time>
      </trkpt>
      <trkpt lat="47.98856" lon="3.34281">
        <ele>76</ele>
        <time>2018-02-21T10:39:28+01:00</time>
      </trkpt>
      <trkpt lat="47.98835" lon="3.34295">
        <ele>76</ele>
        <time>2018-02-21T10:39:40+01:00</time>
      </trkpt>
      <trkpt lat="47.98814" lon="3.34309">
        <ele>76</ele>
        <time>2018-02-21T10:39:54+01:00</time>
      </trkpt>
      <trkpt lat="47.98797" lon="3.34334">
        <ele>76</ele>
        <time>2018-02-21T10:40:20+01:00</time>
      </trkpt>
      <trkpt lat="47.98784" lon="3.34364">
        <ele>75</ele>
        <time>2018-02-21T10:40:41+01:00</time>
      </trkpt>
      <trkpt lat="47.98767" lon="3.34388">
        <ele>75</ele>
        <time>2018-02-21T10:40:59+01:00</time>
      </trkpt>
      <trkpt lat="47.98754" lon="3.34418">
        <ele>76</ele>
        <time>2018-02-21T10:41:14+01:00</time>
      </trkpt>
      <trkpt lat="47.98737" lon="3.34443">
        <ele>75</ele>
        <time>2018-02-21T10:41:29+01:00</time>
      </trkpt>
      <trkpt lat="47.98724" lon="3.3447">
        <ele>75</ele>
        <time>2018-02-21T10:41:47+01:00</time>
      </trkpt>
      <trkpt lat="47.98708" lon="3.34494">
        <ele>75</ele>
        <time>2018-02-21T10:42:01+01:00</time>
      </trkpt>
      <trkpt lat="47.98696" lon="3.34524">
        <ele>74</ele>
        <time>2018-02-21T10:42:17+01:00</time>
      </trkpt>
      <trkpt lat="47.98688" lon="3.34555">
        <ele>74</ele>
        <time>2018-02-21T10:42:32+01:00</time>
      </trkpt>
      <trkpt lat="47.98688" lon="3.34592">
        <ele>75</ele>
        <time>2018-02-21T10:42:47+01:00</time>
      </trkpt>
      <trkpt lat="47.98692" lon="3.34632">
        <ele>75</ele>
        <time>2018-02-21T10:43:02+01:00</time>
      </trkpt>
      <trkpt lat="47.98702" lon="3.34663">
        <ele>76</ele>
        <time>2018-02-21T10:43:15+01:00</time>
      </trkpt>
      <trkpt lat="47.9872" lon="3.34687">
        <ele>75</ele>
        <time>2018-02-21T10:43:30+01:00</time>
      </trkpt>
      <trkpt lat="47.98737" lon="3.3471">
        <ele>75</ele>
        <time>2018-02-21T10:43:43+01:00</time>
      </trkpt>
      <trkpt lat="47.98754" lon="3.34734">
        <ele>75</ele>
        <time>2018-02-21T10:44:07+01:00</time>
      </trkpt>
      <trkpt lat="47.98772" lon="3.34757">
        <ele>74</ele>
        <time>2018-02-21T10:44:24+01:00</time>
      </trkpt>
      <trkpt lat="47.98789" lon="3.34782">
        <ele>73</ele>
        <time>2018-02-21T10:44:41+01:00</time>
      </trkpt>
      <trkpt lat="47.98806" lon="3.34803">
        <ele>73</ele>
        <time>2018-02-21T10:44:57+01:00</time>
      </trkpt>
      <trkpt lat="47.98822" lon="3.34827">
        <ele>72</ele>
        <time>2018-02-21T10:45:12+01:00</time>
      </trkpt>
      <trkpt lat="47.98841" lon="3.34845">
        <ele>72</ele>
        <time>2018-02-21T10:45:29+01:00</time>
      </trkpt>
      <trkpt lat="47.98862" lon="3.34864">
        <ele>73</ele>
        <time>2018-02-21T10:45:47+01:00</time>
      </trkpt>
      <trkpt lat="47.9888" lon="3.34888">
        <ele>73</ele>
        <time>2018-02-21T10:46:02+01:00</time>
      </trkpt>
      <trkpt lat="47.98897" lon="3.34917">
        <ele>73</ele>
        <time>2018-02-21T10:46:19+01:00</time>
      </trkpt>
      <trkpt lat="47.9891" lon="3.34944">
        <ele>73</ele>
        <time>2018-02-21T10:46:35+01:00</time>
      </trkpt>
      <trkpt lat="47.98925" lon="3.34969">
        <ele>73</ele>
        <time>2018-02-21T10:46:50+01:00</time>
      </trkpt>
      <trkpt lat="47.9893" lon="3.3499">
        <ele>73</ele>
        <time>2021-06-17T08:43:02+02:00</time>
      </trkpt>
      <trkpt lat="47.98923" lon="3.35007">
        <ele>73</ele>
        <time>2018-02-21T10:47:09+01:00</time>
      </trkpt>
      <trkpt lat="47.98911" lon="3.35039">
        <ele>73</ele>
        <time>2018-02-21T10:47:27+01:00</time>
      </trkpt>
      <trkpt lat="47.98897" lon="3.35063">
        <ele>72</ele>
        <time>2018-02-21T10:47:44+01:00</time>
      </trkpt>
      <trkpt lat="47.98885" lon="3.35094">
        <ele>73</ele>
        <time>2018-02-21T10:48:05+01:00</time>
      </trkpt>
      <trkpt lat="47.98875" lon="3.35127">
        <ele>73</ele>
        <time>2018-02-21T10:48:19+01:00</time>
      </trkpt>
      <trkpt lat="47.98867" lon="3.35158">
        <ele>73</ele>
        <time>2018-02-21T10:48:35+01:00</time>
      </trkpt>
      <trkpt lat="47.98856" lon="3.35187">
        <ele>73</ele>
        <time>2018-02-21T10:48:52+01:00</time>
      </trkpt>
      <trkpt lat="47.98845" lon="3.35216">
        <ele>73</ele>
        <time>2018-02-21T10:49:05+01:00</time>
      </trkpt>
      <trkpt lat="47.98833" lon="3.35246">
        <ele>72</ele>
        <time>2018-02-21T10:49:17+01:00</time>
      </trkpt>
      <trkpt lat="47.98818" lon="3.3527">
        <ele>72</ele>
        <time>2018-02-21T10:49:30+01:00</time>
      </trkpt>
      <trkpt lat="47.98805" lon="3.353">
        <ele>72</ele>
        <time>2018-02-21T10:49:45+01:00</time>
      </trkpt>
      <trkpt lat="47.9879" lon="3.35329">
        <ele>73</ele>
        <time>2018-02-21T10:49:58+01:00</time>
      </trkpt>
      <trkpt lat="47.98774" lon="3.35354">
        <ele>73</ele>
        <time>2018-02-21T10:50:16+01:00</time>
      </trkpt>
      <trkpt lat="47.98756" lon="3.35379">
        <ele>73</ele>
        <time>2018-02-21T10:50:33+01:00</time>
      </trkpt>
      <trkpt lat="47.98737" lon="3.354">
        <ele>73</ele>
        <time>2018-02-21T10:50:48+01:00</time>
      </trkpt>
      <trkpt lat="47.98719" lon="3.35421">
        <ele>73</ele>
        <time>2018-02-21T10:51:02+01:00</time>
      </trkpt>
      <trkpt lat="47.987" lon="3.35439">
        <ele>73</ele>
        <time>2018-02-21T10:51:15+01:00</time>
      </trkpt>
      <trkpt lat="47.98683" lon="3.35462">
        <ele>73</ele>
        <time>2018-02-21T10:51:29+01:00</time>
      </trkpt>
      <trkpt lat="47.98664" lon="3.35482">
        <ele>73</ele>
        <time>2018-02-21T10:51:46+01:00</time>
      </trkpt>
      <trkpt lat="47.98643" lon="3.35498">
        <ele>73</ele>
        <time>2018-02-21T10:52:02+01:00</time>
      </trkpt>
      <trkpt lat="47.98622" lon="3.35515">
        <ele>73</ele>
        <time>2018-02-21T10:52:15+01:00</time>
      </trkpt>
      <trkpt lat="47.98601" lon="3.3553">
        <ele>73</ele>
        <time>2018-02-21T10:52:29+01:00</time>
      </trkpt>
      <trkpt lat="47.9858" lon="3.35543">
        <ele>73</ele>
        <time>2018-02-21T10:52:48+01:00</time>
      </trkpt>
      <trkpt lat="47.98559" lon="3.35559">
        <ele>73</ele>
        <time>2018-02-21T10:53:06+01:00</time>
      </trkpt>
      <trkpt lat="47.98539" lon="3.35572">
        <ele>74</ele>
        <time>2018-02-21T10:53:26+01:00</time>
      </trkpt>
      <trkpt lat="47.98515" lon="3.35582">
        <ele>75</ele>
        <time>2018-02-21T10:53:42+01:00</time>
      </trkpt>
      <trkpt lat="47.98492" lon="3.35585">
        <ele>76</ele>
        <time>2018-02-21T10:53:59+01:00</time>
      </trkpt>
      <trkpt lat="47.98468" lon="3.3559">
        <ele>76</ele>
        <time>2018-02-21T10:54:12+01:00</time>
      </trkpt>
      <trkpt lat="47.98446" lon="3.35596">
        <ele>76</ele>
        <time>2018-02-21T10:54:27+01:00</time>
      </trkpt>
      <trkpt lat="47.98423" lon="3.356">
        <ele>75</ele>
        <time>2018-02-21T10:54:40+01:00</time>
      </trkpt>
      <trkpt lat="47.98401" lon="3.35606">
        <ele>75</ele>
        <time>2018-02-21T10:54:58+01:00</time>
      </trkpt>
      <trkpt lat="47.98377" lon="3.35606">
        <ele>74</ele>
        <time>2018-02-21T10:55:17+01:00</time>
      </trkpt>
      <trkpt lat="47.98354" lon="3.35607">
        <ele>74</ele>
        <time>2018-02-21T10:55:33+01:00</time>
      </trkpt>
      <trkpt lat="47.9833" lon="3.35607">
        <ele>74</ele>
        <time>2018-02-21T10:55:47+01:00</time>
      </trkpt>
      <trkpt lat="47.98307" lon="3.35606">
        <ele>74</ele>
        <time>2018-02-21T10:56:00+01:00</time>
      </trkpt>
      <trkpt lat="47.98283" lon="3.35606">
        <ele>74</ele>
        <time>2018-02-21T10:56:13+01:00</time>
      </trkpt>
      <trkpt lat="47.9826" lon="3.35611">
        <ele>75</ele>
        <time>2018-02-21T10:56:24+01:00</time>
      </trkpt>
      <trkpt lat="47.98237" lon="3.35611">
        <ele>74</ele>
        <time>2018-02-21T10:56:40+01:00</time>
      </trkpt>
      <trkpt lat="47.98212" lon="3.35614">
        <ele>74</ele>
        <time>2018-02-21T10:56:54+01:00</time>
      </trkpt>
      <trkpt lat="47.98189" lon="3.35615">
        <ele>73</ele>
        <time>2018-02-21T10:57:09+01:00</time>
      </trkpt>
      <trkpt lat="47.98165" lon="3.3562">
        <ele>73</ele>
        <time>2018-02-21T10:57:33+01:00</time>
      </trkpt>
      <trkpt lat="47.98141" lon="3.3562">
        <ele>73</ele>
        <time>2018-02-21T10:57:46+01:00</time>
      </trkpt>
      <trkpt lat="47.98117" lon="3.35624">
        <ele>73</ele>
        <time>2018-02-21T10:58:00+01:00</time>
      </trkpt>
      <trkpt lat="47.98095" lon="3.35633">
        <ele>72</ele>
        <time>2018-02-21T10:58:13+01:00</time>
      </trkpt>
      <trkpt lat="47.98073" lon="3.35643">
        <ele>73</ele>
        <time>2018-02-21T10:58:24+01:00</time>
      </trkpt>
      <trkpt lat="47.98035" lon="3.35676">
        <ele>73</ele>
        <time>2018-02-21T10:59:13+01:00</time>
      </trkpt>
      <trkpt lat="47.98016" lon="3.35694">
        <ele>73</ele>
        <time>2018-02-21T10:59:33+01:00</time>
      </trkpt>
      <trkpt lat="47.97995" lon="3.35709">
        <ele>73</ele>
        <time>2018-02-21T11:00:01+01:00</time>
      </trkpt>
      <trkpt lat="47.97978" lon="3.35731">
        <ele>73</ele>
        <time>2018-02-21T11:00:18+01:00</time>
      </trkpt>
      <trkpt lat="47.9796" lon="3.35755">
        <ele>73</ele>
        <time>2018-02-21T11:00:36+01:00</time>
      </trkpt>
      <trkpt lat="47.97946" lon="3.35782">
        <ele>73</ele>
        <time>2018-02-21T11:00:53+01:00</time>
      </trkpt>
      <trkpt lat="47.97932" lon="3.3581">
        <ele>73</ele>
        <time>2018-02-21T11:01:09+01:00</time>
      </trkpt>
      <trkpt lat="47.97916" lon="3.35837">
        <ele>73</ele>
        <time>2018-02-21T11:01:23+01:00</time>
      </trkpt>
      <trkpt lat="47.97902" lon="3.35863">
        <ele>73</ele>
        <time>2018-02-21T11:01:37+01:00</time>
      </trkpt>
      <trkpt lat="47.97888" lon="3.3589">
        <ele>73</ele>
        <time>2018-02-21T11:01:52+01:00</time>
      </trkpt>
      <trkpt lat="47.97874" lon="3.35919">
        <ele>73</ele>
        <time>2018-02-21T11:02:08+01:00</time>
      </trkpt>
      <trkpt lat="47.9786" lon="3.35945">
        <ele>73</ele>
        <time>2018-02-21T11:02:25+01:00</time>
      </trkpt>
      <trkpt lat="47.97846" lon="3.35975">
        <ele>73</ele>
        <time>2018-02-21T11:02:39+01:00</time>
      </trkpt>
      <trkpt lat="47.97829" lon="3.35984">
        <ele>73</ele>
        <time>2021-06-17T08:47:57+02:00</time>
      </trkpt>
      <trkpt lat="47.97819" lon="3.35989">
        <ele>73</ele>
        <time>2021-06-17T08:48:02+02:00</time>
      </trkpt>
      <trkpt lat="47.97857" lon="3.36005">
        <ele>72</ele>
        <time>2018-02-21T11:03:28+01:00</time>
      </trkpt>
      <trkpt lat="47.97878" lon="3.36017">
        <ele>72</ele>
        <time>2018-02-21T11:04:01+01:00</time>
      </trkpt>
      <trkpt lat="47.97899" lon="3.36029">
        <ele>71</ele>
        <time>2018-02-21T11:04:18+01:00</time>
      </trkpt>
      <trkpt lat="47.97924" lon="3.36046">
        <ele>71</ele>
        <time>2018-02-21T11:04:51+01:00</time>
      </trkpt>
      <trkpt lat="47.97909" lon="3.36095">
        <ele>72</ele>
        <time>2018-02-21T11:05:12+01:00</time>
      </trkpt>
      <trkpt lat="47.97894" lon="3.36136">
        <ele>73</ele>
        <time>2018-02-21T11:05:30+01:00</time>
      </trkpt>
      <trkpt lat="47.97885" lon="3.36167">
        <ele>74</ele>
        <time>2018-02-21T11:05:45+01:00</time>
      </trkpt>
      <trkpt lat="47.97875" lon="3.36201">
        <ele>73</ele>
        <time>2018-02-21T11:06:00+01:00</time>
      </trkpt>
      <trkpt lat="47.9787" lon="3.36231">
        <ele>73</ele>
        <time>2018-02-21T11:06:13+01:00</time>
      </trkpt>
      <trkpt lat="47.97863" lon="3.36265">
        <ele>73</ele>
        <time>2018-02-21T11:06:27+01:00</time>
      </trkpt>
      <trkpt lat="47.97857" lon="3.36297">
        <ele>74</ele>
        <time>2018-02-21T11:06:43+01:00</time>
      </trkpt>
      <trkpt lat="47.97852" lon="3.36325">
        <ele>74</ele>
        <time>2018-02-21T11:06:59+01:00</time>
      </trkpt>
      <trkpt lat="47.97845" lon="3.36356">
        <ele>75</ele>
        <time>2018-02-21T11:07:13+01:00</time>
      </trkpt>
      <trkpt lat="47.97835" lon="3.36397">
        <ele>75</ele>
        <time>2021-06-17T08:49:12+02:00</time>
      </trkpt>
      <trkpt lat="47.97843" lon="3.36402">
        <ele>75</ele>
        <time>2018-02-21T11:07:24+01:00</time>
      </trkpt>
      <trkpt lat="47.9786" lon="3.36418">
        <ele>74</ele>
        <time>2018-02-21T11:07:38+01:00</time>
      </trkpt>
      <trkpt lat="47.97869" lon="3.36451">
        <ele>74</ele>
        <time>2018-02-21T11:07:57+01:00</time>
      </trkpt>
      <trkpt lat="47.97877" lon="3.36485">
        <ele>73</ele>
        <time>2018-02-21T11:08:12+01:00</time>
      </trkpt>
      <trkpt lat="47.97884" lon="3.36517">
        <ele>73</ele>
        <time>2018-02-21T11:08:26+01:00</time>
      </trkpt>
      <trkpt lat="47.97888" lon="3.36552">
        <ele>73</ele>
        <time>2018-02-21T11:08:42+01:00</time>
      </trkpt>
      <trkpt lat="47.97894" lon="3.36586">
        <ele>73</ele>
        <time>2018-02-21T11:08:58+01:00</time>
      </trkpt>
      <trkpt lat="47.97898" lon="3.36624">
        <ele>73</ele>
        <time>2018-02-21T11:09:12+01:00</time>
      </trkpt>
      <trkpt lat="47.97911" lon="3.36656">
        <ele>74</ele>
        <time>2018-02-21T11:09:26+01:00</time>
      </trkpt>
      <trkpt lat="47.97933" lon="3.36673">
        <ele>74</ele>
        <time>2018-02-21T11:09:44+01:00</time>
      </trkpt>
      <trkpt lat="47.9795" lon="3.36694">
        <ele>74</ele>
        <time>2018-02-21T11:09:58+01:00</time>
      </trkpt>
      <trkpt lat="47.97968" lon="3.36717">
        <ele>74</ele>
        <time>2018-02-21T11:10:16+01:00</time>
      </trkpt>
      <trkpt lat="47.97985" lon="3.36742">
        <ele>73</ele>
        <time>2018-02-21T11:10:30+01:00</time>
      </trkpt>
      <trkpt lat="47.98" lon="3.36769">
        <ele>73</ele>
        <time>2018-02-21T11:10:45+01:00</time>
      </trkpt>
      <trkpt lat="47.98015" lon="3.36796">
        <ele>73</ele>
        <time>2018-02-21T11:10:59+01:00</time>
      </trkpt>
      <trkpt lat="47.9803" lon="3.36822">
        <ele>73</ele>
        <time>2018-02-21T11:11:12+01:00</time>
      </trkpt>
      <trkpt lat="47.98047" lon="3.36846">
        <ele>72</ele>
        <time>2018-02-21T11:11:25+01:00</time>
      </trkpt>
      <trkpt lat="47.98059" lon="3.36874">
        <ele>72</ele>
        <time>2018-02-21T11:11:38+01:00</time>
      </trkpt>
      <trkpt lat="47.98073" lon="3.36901">
        <ele>72</ele>
        <time>2018-02-21T11:11:52+01:00</time>
      </trkpt>
      <trkpt lat="47.98086" lon="3.36931">
        <ele>72</ele>
        <time>2018-02-21T11:12:04+01:00</time>
      </trkpt>
      <trkpt lat="47.98097" lon="3.36963">
        <ele>73</ele>
        <time>2018-02-21T11:12:18+01:00</time>
      </trkpt>
      <trkpt lat="47.98104" lon="3.36995">
        <ele>74</ele>
        <time>2018-02-21T11:12:33+01:00</time>
      </trkpt>
      <trkpt lat="47.98113" lon="3.37028">
        <ele>73</ele>
        <time>2018-02-21T11:12:47+01:00</time>
      </trkpt>
      <trkpt lat="47.98123" lon="3.37059">
        <ele>73</ele>
        <time>2018-02-21T11:13:02+01:00</time>
      </trkpt>
      <trkpt lat="47.98132" lon="3.3709">
        <ele>73</ele>
        <time>2018-02-21T11:13:15+01:00</time>
      </trkpt>
      <trkpt lat="47.98137" lon="3.37124">
        <ele>73</ele>
        <time>2018-02-21T11:13:29+01:00</time>
      </trkpt>
      <trkpt lat="47.98143" lon="3.37159">
        <ele>73</ele>
        <time>2018-02-21T11:13:44+01:00</time>
      </trkpt>
      <trkpt lat="47.98146" lon="3.37193">
        <ele>73</ele>
        <time>2018-02-21T11:13:58+01:00</time>
      </trkpt>
      <trkpt lat="47.98147" lon="3.37227">
        <ele>74</ele>
        <time>2018-02-21T11:14:13+01:00</time>
      </trkpt>
      <trkpt lat="47.98146" lon="3.37262">
        <ele>74</ele>
        <time>2018-02-21T11:14:30+01:00</time>
      </trkpt>
      <trkpt lat="47.98144" lon="3.37295">
        <ele>74</ele>
        <time>2018-02-21T11:14:44+01:00</time>
      </trkpt>
      <trkpt lat="47.98143" lon="3.3733">
        <ele>75</ele>
        <time>2018-02-21T11:14:59+01:00</time>
      </trkpt>
      <trkpt lat="47.98144" lon="3.37364">
        <ele>75</ele>
        <time>2018-02-21T11:15:13+01:00</time>
      </trkpt>
      <trkpt lat="47.98143" lon="3.37399">
        <ele>75</ele>
        <time>2018-02-21T11:15:30+01:00</time>
      </trkpt>
      <trkpt lat="47.98143" lon="3.37434">
        <ele>75</ele>
        <time>2018-02-21T11:15:44+01:00</time>
      </trkpt>
      <trkpt lat="47.9815" lon="3.37467">
        <ele>75</ele>
        <time>2018-02-21T11:16:00+01:00</time>
      </trkpt>
      <trkpt lat="47.98161" lon="3.37497">
        <ele>75</ele>
        <time>2018-02-21T11:16:15+01:00</time>
      </trkpt>
      <trkpt lat="47.98177" lon="3.37521">
        <ele>75</ele>
        <time>2018-02-21T11:16:28+01:00</time>
      </trkpt>
      <trkpt lat="47.98196" lon="3.37542">
        <ele>75</ele>
        <time>2018-02-21T11:16:41+01:00</time>
      </trkpt>
      <trkpt lat="47.98219" lon="3.37552">
        <ele>76</ele>
        <time>2018-02-21T11:16:56+01:00</time>
      </trkpt>
      <trkpt lat="47.98232" lon="3.37561">
        <ele>76</ele>
        <time>2021-06-17T08:52:37+02:00</time>
      </trkpt>
      <trkpt lat="47.98231" lon="3.37581">
        <ele>76</ele>
        <time>2018-02-21T11:17:13+01:00</time>
      </trkpt>
      <trkpt lat="47.98226" lon="3.37616">
        <ele>76</ele>
        <time>2018-02-21T11:17:34+01:00</time>
      </trkpt>
      <trkpt lat="47.98222" lon="3.37651">
        <ele>77</ele>
        <time>2018-02-21T11:17:50+01:00</time>
      </trkpt>
      <trkpt lat="47.9822" lon="3.37687">
        <ele>78</ele>
        <time>2018-02-21T11:18:00+01:00</time>
      </trkpt>
      <trkpt lat="47.98216" lon="3.37722">
        <ele>77</ele>
        <time>2018-02-21T11:18:11+01:00</time>
      </trkpt>
      <trkpt lat="47.98217" lon="3.37758">
        <ele>78</ele>
        <time>2018-02-21T11:18:24+01:00</time>
      </trkpt>
      <trkpt lat="47.98218" lon="3.37792">
        <ele>78</ele>
        <time>2018-02-21T11:18:39+01:00</time>
      </trkpt>
      <trkpt lat="47.98222" lon="3.37825">
        <ele>79</ele>
        <time>2018-02-21T11:18:53+01:00</time>
      </trkpt>
      <trkpt lat="47.98227" lon="3.37858">
        <ele>79</ele>
        <time>2018-02-21T11:19:08+01:00</time>
      </trkpt>
      <trkpt lat="47.98234" lon="3.3789">
        <ele>78</ele>
        <time>2018-02-21T11:20:34+01:00</time>
      </trkpt>
      <trkpt lat="47.98244" lon="3.37921">
        <ele>78</ele>
        <time>2018-02-21T11:20:51+01:00</time>
      </trkpt>
      <trkpt lat="47.98254" lon="3.37951">
        <ele>77</ele>
        <time>2018-02-21T11:21:06+01:00</time>
      </trkpt>
      <trkpt lat="47.98261" lon="3.37985">
        <ele>77</ele>
        <time>2018-02-21T11:21:22+01:00</time>
      </trkpt>
      <trkpt lat="47.98267" lon="3.38019">
        <ele>77</ele>
        <time>2018-02-21T11:21:36+01:00</time>
      </trkpt>
      <trkpt lat="47.98273" lon="3.38052">
        <ele>78</ele>
        <time>2018-02-21T11:21:52+01:00</time>
      </trkpt>
      <trkpt lat="47.98276" lon="3.38086">
        <ele>78</ele>
        <time>2018-02-21T11:22:08+01:00</time>
      </trkpt>
      <trkpt lat="47.98281" lon="3.3812">
        <ele>79</ele>
        <time>2018-02-21T11:22:25+01:00</time>
      </trkpt>
      <trkpt lat="47.98281" lon="3.38155">
        <ele>80</ele>
        <time>2018-02-21T11:22:37+01:00</time>
      </trkpt>
      <trkpt lat="47.98283" lon="3.38189">
        <ele>81</ele>
        <time>2018-02-21T11:22:52+01:00</time>
      </trkpt>
      <trkpt lat="47.98285" lon="3.38223">
        <ele>81</ele>
        <time>2018-02-21T11:23:06+01:00</time>
      </trkpt>
      <trkpt lat="47.98287" lon="3.38257">
        <ele>82</ele>
        <time>2018-02-21T11:23:18+01:00</time>
      </trkpt>
      <trkpt lat="47.98289" lon="3.38292">
        <ele>83</ele>
        <time>2018-02-21T11:23:35+01:00</time>
      </trkpt>
      <trkpt lat="47.98291" lon="3.38326">
        <ele>83</ele>
        <time>2018-02-21T11:23:51+01:00</time>
      </trkpt>
      <trkpt lat="47.98294" lon="3.38362">
        <ele>83</ele>
        <time>2018-02-21T11:24:04+01:00</time>
      </trkpt>
      <trkpt lat="47.983" lon="3.38395">
        <ele>82</ele>
        <time>2018-02-21T11:24:18+01:00</time>
      </trkpt>
      <trkpt lat="47.98303" lon="3.38431">
        <ele>82</ele>
        <time>2018-02-21T11:24:33+01:00</time>
      </trkpt>
      <trkpt lat="47.98304" lon="3.38465">
        <ele>82</ele>
        <time>2018-02-21T11:24:46+01:00</time>
      </trkpt>
      <trkpt lat="47.98305" lon="3.38499">
        <ele>82</ele>
        <time>2018-02-21T11:25:01+01:00</time>
      </trkpt>
      <trkpt lat="47.98306" lon="3.38534">
        <ele>83</ele>
        <time>2018-02-21T11:25:17+01:00</time>
      </trkpt>
      <trkpt lat="47.98307" lon="3.38569">
        <ele>84</ele>
        <time>2018-02-21T11:25:33+01:00</time>
      </trkpt>
      <trkpt lat="47.98306" lon="3.38605">
        <ele>84</ele>
        <time>2018-02-21T11:25:47+01:00</time>
      </trkpt>
      <trkpt lat="47.98308" lon="3.38642">
        <ele>83</ele>
        <time>2018-02-21T11:26:03+01:00</time>
      </trkpt>
      <trkpt lat="47.98309" lon="3.38675">
        <ele>82</ele>
        <time>2018-02-21T11:26:17+01:00</time>
      </trkpt>
      <trkpt lat="47.98308" lon="3.38709">
        <ele>81</ele>
        <time>2018-02-21T11:26:31+01:00</time>
      </trkpt>
      <trkpt lat="47.98311" lon="3.38745">
        <ele>81</ele>
        <time>2018-02-21T11:27:21+01:00</time>
      </trkpt>
      <trkpt lat="47.98327" lon="3.38765">
        <ele>83</ele>
        <time>2018-02-21T11:27:37+01:00</time>
      </trkpt>
      <trkpt lat="47.98333" lon="3.38801">
        <ele>86</ele>
        <time>2018-02-21T11:27:52+01:00</time>
      </trkpt>
      <trkpt lat="47.98339" lon="3.38834">
        <ele>89</ele>
        <time>2018-02-21T11:28:08+01:00</time>
      </trkpt>
      <trkpt lat="47.98342" lon="3.38867">
        <ele>89</ele>
        <time>2018-02-21T11:28:22+01:00</time>
      </trkpt>
      <trkpt lat="47.98344" lon="3.38906">
        <ele>89</ele>
        <time>2018-02-21T11:28:36+01:00</time>
      </trkpt>
      <trkpt lat="47.98343" lon="3.38943">
        <ele>88</ele>
        <time>2018-02-21T11:28:48+01:00</time>
      </trkpt>
      <trkpt lat="47.98344" lon="3.3897">
        <ele>88</ele>
        <time>2018-02-21T11:29:03+01:00</time>
      </trkpt>
      <trkpt lat="47.98342" lon="3.39007">
        <ele>87</ele>
        <time>2018-02-21T11:29:19+01:00</time>
      </trkpt>
      <trkpt lat="47.98339" lon="3.39043">
        <ele>87</ele>
        <time>2018-02-21T11:29:31+01:00</time>
      </trkpt>
      <trkpt lat="47.9834" lon="3.39077">
        <ele>86</ele>
        <time>2018-02-21T11:29:43+01:00</time>
      </trkpt>
      <trkpt lat="47.98344" lon="3.39105">
        <ele>87</ele>
        <time>2018-02-21T11:30:01+01:00</time>
      </trkpt>
      <trkpt lat="47.98336" lon="3.39145">
        <ele>86</ele>
        <time>2018-02-21T11:30:19+01:00</time>
      </trkpt>
      <trkpt lat="47.98335" lon="3.3918">
        <ele>86</ele>
        <time>2018-02-21T11:30:36+01:00</time>
      </trkpt>
      <trkpt lat="47.98337" lon="3.39215">
        <ele>87</ele>
        <time>2018-02-21T11:30:54+01:00</time>
      </trkpt>
      <trkpt lat="47.98339" lon="3.39249">
        <ele>87</ele>
        <time>2018-02-21T11:31:12+01:00</time>
      </trkpt>
      <trkpt lat="47.9834" lon="3.39285">
        <ele>88</ele>
        <time>2018-02-21T11:31:29+01:00</time>
      </trkpt>
      <trkpt lat="47.98339" lon="3.39319">
        <ele>89</ele>
        <time>2018-02-21T11:31:46+01:00</time>
      </trkpt>
      <trkpt lat="47.98341" lon="3.39353">
        <ele>90</ele>
        <time>2018-02-21T11:32:02+01:00</time>
      </trkpt>
      <trkpt lat="47.9834" lon="3.39388">
        <ele>91</ele>
        <time>2018-02-21T11:32:22+01:00</time>
      </trkpt>
      <trkpt lat="47.98343" lon="3.39432">
        <ele>92</ele>
        <time>2018-02-21T11:32:36+01:00</time>
      </trkpt>
      <trkpt lat="47.98353" lon="3.3943">
        <ele>93</ele>
        <time>2021-06-17T08:57:17+02:00</time>
      </trkpt>
      <trkpt lat="47.98372" lon="3.39432">
        <ele>94</ele>
        <time>2021-06-17T08:57:22+02:00</time>
      </trkpt>
      <trkpt lat="47.98389" lon="3.39431">
        <ele>95</ele>
        <time>2018-02-21T11:33:11+01:00</time>
      </trkpt>
      <trkpt lat="47.9841" lon="3.39431">
        <ele>96</ele>
        <time>2018-02-21T11:33:28+01:00</time>
      </trkpt>
    </trkseg>
  </trk>
</gpx>